SCAR METAR and TAF weather

Enter ICAO airport designator
Station Type Date Time Source
SCAR METAR 2021/07/28 19:00 UTC NOAA

SCAR 281900Z 21011KT 9999 BKN026 17/11 Q1014


Station Type Date Time Source
SCAR Decoded METAR 2021/07/28 19:00 UTC NOAA

Arica, Chile (SCAR) 18-20S 070-20W 58M
Jul 28, 2021 - 03:00 PM EDT / 2021.07.28 1900 UTC
Wind: from the SSW (210 degrees) at 13 MPH (11 KT):0
Visibility: greater than 7 mile(s):0
Sky conditions: mostly cloudy
Temperature: 62 F (17 C)
Dew Point: 51 F (11 C)
Relative Humidity: 67%
Pressure (altimeter): 29.94 in. Hg (1014 hPa)
ob: SCAR 281900Z 21011KT 9999 BKN026 17/11 Q1014
cycle: 19

Station Type Date Time Source
SCAR TAF 2021/07/28 18:36 UTC NOAA

TAF COR SCAR 281731Z 2818/2918 22010KT CAVOK TX18/2818Z TN15/2909Z
BECMG 2822/2900 17004KT OVC030
BECMG 2904/2906 08004KT
BECMG 2915/2917 25007KT CAVOK

Example: see airport list